Time;durP1;ratioP1;P1;durP2;ratioP2;P2;SDS_P1;SDS_P2;PMS_P1;PMS_P2;Temp;Humidity;BMP_temperature;BMP_pressure;BME280_temperature;BME280_humidity;BME280_pressure;Samples;Min_cycle;Max_cycle;Signal;HPM_P1;HPM_P2
2021/06/25 00:02:14;;;;;;;;;24.25;21.75;;;;;18.17;100.00;101920.63;4924855;28;45388;-66
2021/06/25 00:04:39;;;;;;;;;25.25;20.50;;;;;18.12;100.00;101908.44;4925061;28;45537;-66
2021/06/25 00:10:26;;;;;;;;;20.75;19.00;;;;;18.13;100.00;101904.88;4924798;28;45315;-66
2021/06/25 00:12:52;;;;;;;;;21.75;18.75;;;;;18.15;100.00;101917.16;4925124;28;45412;-66
2021/06/25 00:15:18;;;;;;;;;18.75;18.50;;;;;18.13;100.00;101910.16;4924663;28;47309;-67
2021/06/25 00:17:44;;;;;;;;;23.00;20.00;;;;;18.13;100.00;101913.69;4924960;28;45318;-67
2021/06/25 00:20:12;;;;;;;;;22.25;19.50;;;;;18.14;100.00;101911.91;4922594;28;45813;-66
2021/06/25 00:22:37;;;;;;;;;23.25;21.25;;;;;18.01;100.00;101887.56;4922012;28;45411;-66
2021/06/25 00:25:03;;;;;;;;;22.25;17.75;;;;;18.08;100.00;101910.25;4921485;28;47227;-67
2021/06/25 00:27:31;;;;;;;;;20.75;19.75;;;;;18.05;100.00;101905.94;4921628;28;45408;-66
2021/06/25 00:29:57;;;;;;;;;24.50;21.75;;;;;18.05;100.00;101905.06;4921987;28;45513;-67
2021/06/25 00:32:22;;;;;;;;;24.50;23.00;;;;;18.02;100.00;101905.16;4921666;28;45301;-67
2021/06/25 00:34:47;;;;;;;;;24.00;22.00;;;;;17.99;100.00;101903.47;4921512;28;46380;-68
2021/06/25 00:40:35;;;;;;;;;24.50;22.75;;;;;17.96;100.00;101894.75;4921441;28;45353;-67
2021/06/25 00:43:02;;;;;;;;;23.00;22.75;;;;;17.94;100.00;101899.22;4921850;28;45335;-68
2021/06/25 00:45:28;;;;;;;;;24.50;21.75;;;;;17.89;100.00;101893.19;4921511;28;45394;-67
2021/06/25 00:47:53;;;;;;;;;23.75;19.75;;;;;17.88;100.00;101892.31;4921403;28;45252;-67
2021/06/25 00:50:26;;;;;;;;;28.50;25.25;;;;;17.84;100.00;101890.63;4921518;28;45438;-66
2021/06/25 00:52:53;;;;;;;;;24.25;21.50;;;;;17.85;100.00;101895.00;4921353;28;45393;-67
2021/06/25 00:55:18;;;;;;;;;26.50;22.75;;;;;17.79;100.00;101889.91;4920974;28;47425;-69
2021/06/25 00:57:44;;;;;;;;;22.75;21.50;;;;;17.78;100.00;101889.94;4921085;28;45351;-68
2021/06/25 01:00:11;;;;;;;;;25.00;23.00;;;;;17.71;100.00;101878.66;4921260;28;45400;-67
2021/06/25 01:02:36;;;;;;;;;30.50;22.25;;;;;17.73;100.00;101887.41;4921381;28;45390;-65
2021/06/25 01:11:10;;;;;;;;;24.00;22.25;;;;;17.60;100.00;101864.81;4920924;28;45387;-67
2021/06/25 01:13:39;;;;;;;;;27.75;26.50;;;;;17.53;100.00;101858.84;4921250;28;45554;-67
2021/06/25 01:16:08;;;;;;;;;23.25;20.75;;;;;17.54;100.00;101859.69;4919392;28;46373;-67
2021/06/25 01:18:34;;;;;;;;;27.25;22.25;;;;;17.54;100.00;101868.50;4920974;28;45333;-67
2021/06/25 01:21:01;;;;;;;;;22.00;20.25;;;;;17.54;100.00;101872.91;4920610;28;45424;-67
2021/06/25 01:23:27;;;;;;;;;26.75;23.50;;;;;17.53;100.00;101868.53;4921106;28;45326;-67
2021/06/25 01:25:54;;;;;;;;;23.50;21.00;;;;;17.49;100.00;101870.38;4935207;28;46246;-66
2021/06/25 01:28:19;;;;;;;;;25.25;23.25;;;;;17.43;100.00;101852.94;4920710;28;45759;-65
2021/06/25 01:30:48;;;;;;;;;21.50;21.25;;;;;17.40;100.00;101858.25;4920988;28;45269;-67
2021/06/25 01:33:16;;;;;;;;;25.00;21.25;;;;;17.42;100.00;101864.38;4920636;28;45601;-66
2021/06/25 01:35:42;;;;;;;;;24.25;23.50;;;;;17.32;100.00;101844.41;4920269;28;46177;-67
2021/06/25 01:38:09;;;;;;;;;27.00;23.50;;;;;17.40;100.00;101860.03;4920748;28;46077;-67
2021/06/25 01:40:36;;;;;;;;;23.25;22.50;;;;;17.35;100.00;101854.88;4920233;28;45373;-65
2021/06/25 01:43:04;;;;;;;;;21.75;20.50;;;;;17.34;100.00;101855.78;4920590;28;45422;-66
2021/06/25 01:45:33;;;;;;;;;27.50;25.00;;;;;17.35;100.00;101851.38;4920094;28;47276;-66
2021/06/25 01:48:02;;;;;;;;;24.75;21.50;;;;;17.31;100.00;101845.31;4920560;28;45410;-66
2021/06/25 01:50:36;;;;;;;;;23.00;22.00;;;;;17.28;100.00;101837.47;4920649;28;45377;-66
2021/06/25 01:53:03;;;;;;;;;25.75;23.00;;;;;17.26;100.00;101841.91;4920589;28;45230;-66
2021/06/25 01:55:38;;;;;;;;;22.25;20.00;;;;;17.24;100.00;101840.22;4919972;28;46412;-66
2021/06/25 01:58:08;;;;;;;;;29.25;24.00;;;;;17.20;100.00;101831.50;4920372;28;45776;-67
2021/06/25 02:00:34;;;;;;;;;25.50;22.50;;;;;17.19;100.00;101828.88;4920340;28;45392;-67
2021/06/25 02:03:00;;;;;;;;;22.75;22.25;;;;;17.15;100.00;101825.44;4919365;28;45422;-65
2021/06/25 02:05:25;;;;;;;;;25.00;20.50;;;;;17.13;100.00;101825.50;4919852;28;46436;-66
2021/06/25 02:07:50;;;;;;;;;24.25;23.75;;;;;17.12;100.00;101826.41;4920164;28;45320;-67
2021/06/25 02:10:16;;;;;;;;;28.00;25.25;;;;;17.09;100.00;101820.31;4920069;28;45506;-67
2021/06/25 02:12:42;;;;;;;;;29.25;26.75;;;;;17.08;100.00;101818.59;4920136;28;45330;-66
2021/06/25 02:15:09;;;;;;;;;29.25;25.00;;;;;17.07;100.00;101827.41;4920261;28;45380;-67
2021/06/25 02:17:35;;;;;;;;;26.25;25.50;;;;;16.99;100.00;101803.88;4919833;28;45655;-67
2021/06/25 02:20:00;;;;;;;;;24.75;22.25;;;;;16.99;100.00;101813.56;4918511;28;45825;-67
2021/06/25 02:25:47;;;;;;;;;32.50;28.25;;;;;16.95;100.00;101806.59;4919703;28;45337;-66
2021/06/25 02:28:13;;;;;;;;;28.75;25.00;;;;;16.82;100.00;101792.84;4919643;28;45301;-66
2021/06/25 02:30:38;;;;;;;;;27.75;24.50;;;;;16.92;100.00;101812.81;4920108;28;45345;-66
2021/06/25 02:33:04;;;;;;;;;24.25;21.75;;;;;16.93;100.00;101811.03;4919932;28;45423;-65
2021/06/25 02:35:30;;;;;;;;;28.25;26.00;;;;;16.92;100.00;101804.03;4919210;28;45691;-66
2021/06/25 02:41:20;;;;;;;;;23.00;21.75;;;;;16.83;100.00;101813.03;4919646;28;45588;-67
2021/06/25 02:43:47;;;;;;;;;26.25;23.00;;;;;16.82;100.00;101812.16;4917834;28;45402;-65
2021/06/25 02:46:12;;;;;;;;;29.25;24.75;;;;;16.67;100.00;101775.59;4919177;28;46601;-67
2021/06/25 02:48:38;;;;;;;;;27.75;24.00;;;;;16.76;100.00;101795.63;4919416;28;45380;-67
2021/06/25 02:51:03;;;;;;;;;27.50;25.75;;;;;16.78;100.00;101796.44;4919422;28;45489;-65
2021/06/25 02:53:28;;;;;;;;;28.25;24.00;;;;;16.72;100.00;101788.66;4919528;28;45455;-66
2021/06/25 02:55:54;;;;;;;;;25.25;22.25;;;;;16.71;100.00;101790.44;4919198;28;47198;-66
2021/06/25 02:58:22;;;;;;;;;28.25;27.00;;;;;16.74;100.00;101795.63;4919195;28;45489;-65
2021/06/25 03:00:48;;;;;;;;;24.00;22.00;;;;;16.68;100.00;101795.78;4919665;28;45318;-67
2021/06/25 03:03:15;;;;;;;;;36.75;27.00;;;;;16.53;100.00;101773.25;4919595;28;45442;-67
2021/06/25 03:05:40;;;;;;;;;29.50;25.75;;;;;16.66;100.00;101800.22;4919048;28;47708;-68
2021/06/25 03:11:27;;;;;;;;;31.75;25.75;;;;;16.64;100.00;101796.72;4919122;28;45309;-66
2021/06/25 03:13:52;;;;;;;;;26.00;23.50;;;;;16.56;100.00;101781.97;4919451;28;45404;-66
2021/06/25 03:16:18;;;;;;;;;27.50;24.25;;;;;16.62;100.00;101800.28;4919258;28;45342;-67
2021/06/25 03:18:43;;;;;;;;;27.50;24.50;;;;;16.62;100.00;101802.94;4919007;28;45453;-67
2021/06/25 03:21:09;;;;;;;;;29.75;28.25;;;;;16.54;100.00;101780.25;4918840;28;45229;-66
2021/06/25 03:23:34;;;;;;;;;20.50;20.25;;;;;16.53;100.00;101777.66;4919611;28;45321;-67
2021/06/25 03:25:59;;;;;;;;;25.75;23.00;;;;;16.52;100.00;101784.69;4918871;28;45704;-67
2021/06/25 03:28:25;;;;;;;;;32.00;28.00;;;;;16.56;100.00;101793.41;4917495;28;45412;-66
2021/06/25 03:30:50;;;;;;;;;28.00;24.75;;;;;16.51;100.00;101790.84;4919007;28;45325;-67
2021/06/25 03:33:16;;;;;;;;;25.00;25.00;;;;;16.57;100.00;101794.25;4919152;28;45348;-67
2021/06/25 03:35:41;;;;;;;;;31.25;27.50;;;;;16.58;100.00;101788.94;4918818;28;46254;-67
2021/06/25 03:41:29;;;;;;;;;30.50;28.00;;;;;16.61;100.00;101796.78;4918911;28;45297;-66
2021/06/25 03:43:54;;;;;;;;;31.00;28.75;;;;;16.56;100.00;101776.72;4919272;28;45789;-66
2021/06/25 03:46:22;;;;;;;;;29.25;25.00;;;;;16.62;100.00;101797.66;4933417;28;46676;-66
2021/06/25 03:48:47;;;;;;;;;30.00;25.50;;;;;16.62;100.00;101787.09;4917532;28;45618;-66
2021/06/25 03:51:13;;;;;;;;;29.75;26.50;;;;;16.67;100.00;101793.16;4918743;28;45351;-67
2021/06/25 03:53:38;;;;;;;;;26.75;21.25;;;;;16.66;100.00;101788.78;4918967;28;45522;-66
2021/06/25 03:56:13;;;;;;;;;27.25;23.25;;;;;16.72;100.00;101791.28;4919899;28;46331;-66
2021/06/25 03:58:43;;;;;;;;;22.50;21.00;;;;;16.74;100.00;101787.72;4922099;28;45484;-66
2021/06/25 04:01:09;;;;;;;;;28.75;27.00;;;;;16.77;100.00;101786.81;4922030;28;45317;-67
2021/06/25 04:03:36;;;;;;;;;26.50;24.25;;;;;16.81;100.00;101784.06;4922092;28;45491;-67
2021/06/25 04:06:02;;;;;;;;;31.00;27.50;;;;;16.88;100.00;101786.53;4921466;28;46695;-66
2021/06/25 04:11:49;;;;;;;;;28.00;25.50;;;;;16.97;100.00;101776.63;4921791;28;45403;-67
2021/06/25 04:14:14;;;;;;;;;26.00;23.75;;;;;17.02;100.00;101776.53;4922140;28;45524;-67
2021/06/25 04:16:40;;;;;;;;;26.75;22.75;;;;;17.03;100.00;101773.84;4921860;28;45469;-67
2021/06/25 04:19:05;;;;;;;;;35.00;32.00;;;;;17.09;100.00;101770.19;4921432;28;45410;-67
2021/06/25 04:21:30;;;;;;;;;34.75;27.75;;;;;17.13;100.00;101775.34;4921751;28;45400;-67
2021/06/25 04:23:56;;;;;;;;;28.25;24.25;;;;;17.20;100.00;101778.72;4921549;28;45445;-67
2021/06/25 04:26:21;;;;;;;;;25.25;23.75;;;;;17.24;100.00;101787.44;4936322;28;47345;-66
2021/06/25 04:28:47;;;;;;;;;29.00;24.25;;;;;17.25;100.00;101784.75;4921315;28;45408;-68
2021/06/25 04:31:12;;;;;;;;;29.00;27.75;;;;;17.28;100.00;101774.13;4921786;28;45983;-68
2021/06/25 04:33:39;;;;;;;;;27.75;24.25;;;;;17.24;100.00;101766.31;4921692;28;45357;-68
2021/06/25 04:36:05;;;;;;;;;26.50;24.50;;;;;17.34;100.00;101781.88;4921267;28;47342;-67
2021/06/25 04:41:55;;;;;;;;;28.00;27.00;;;;;17.44;100.00;101777.22;4921193;28;45642;-66
2021/06/25 04:44:20;;;;;;;;;27.00;25.75;;;;;17.48;100.00;101778.00;4921619;28;45314;-65
2021/06/25 04:46:45;;;;;;;;;29.00;27.25;;;;;17.45;100.00;101778.97;4921083;28;47106;-67
2021/06/25 04:49:11;;;;;;;;;25.75;24.00;;;;;17.46;100.00;101775.41;4921232;28;45293;-68
2021/06/25 04:51:36;;;;;;;;;31.50;29.00;;;;;17.50;100.00;101773.56;4920898;28;45358;-67
2021/06/25 04:54:01;;;;;;;;;30.25;27.00;;;;;17.54;100.00;101778.72;4921158;28;45283;-67
2021/06/25 04:56:27;;;;;;;;;27.00;25.25;;;;;17.49;100.00;101769.19;4920882;28;45454;-66
2021/06/25 04:58:52;;;;;;;;;28.25;25.00;;;;;17.62;100.00;101789.06;4920443;28;45402;-65
2021/06/25 05:01:18;;;;;;;;;28.25;24.00;;;;;17.64;100.00;101790.75;4920944;28;45339;-67
2021/06/25 05:03:43;;;;;;;;;27.00;25.00;;;;;17.58;100.00;101768.94;4920950;28;45251;-67
2021/06/25 05:06:08;;;;;;;;;28.25;26.50;;;;;17.67;100.00;101777.53;4920176;28;46353;-67
2021/06/25 05:11:55;;;;;;;;;30.50;25.00;;;;;17.68;100.00;101776.63;4920825;28;45373;-65
2021/06/25 05:14:21;;;;;;;;;31.50;25.25;;;;;17.74;100.00;101783.50;4921302;28;45275;-64
2021/06/25 05:16:46;;;;;;;;;24.75;23.00;;;;;17.77;100.00;101788.69;4920492;28;47220;-65
2021/06/25 05:19:11;;;;;;;;;31.25;26.25;;;;;17.80;100.00;101785.97;4920282;28;45516;-66
2021/06/25 05:21:37;;;;;;;;;28.00;22.00;;;;;17.81;100.00;101789.47;4920600;28;45491;-66
2021/06/25 05:24:04;;;;;;;;;31.25;27.50;;;;;17.83;100.00;101788.50;4935457;28;45502;-66
2021/06/25 05:26:29;;;;;;;;;32.50;27.50;;;;;17.81;100.00;101778.91;4920402;28;45674;-66
2021/06/25 05:28:54;;;;;;;;;27.75;23.75;;;;;17.85;100.00;101785.81;4920540;28;45421;-66
2021/06/25 05:31:20;;;;;;;;;31.50;27.25;;;;;17.88;100.00;101783.09;4920478;28;45347;-67
2021/06/25 05:33:45;;;;;;;;;31.25;27.50;;;;;17.93;100.00;101784.72;4920588;28;45467;-66
2021/06/25 05:36:11;;;;;;;;;27.75;25.75;;;;;17.96;100.00;101782.00;4920407;28;45581;-66
2021/06/25 05:41:58;;;;;;;;;30.25;28.25;;;;;17.95;100.00;101774.09;4919904;28;45496;-66
2021/06/25 05:44:23;;;;;;;;;28.50;27.75;;;;;17.99;100.00;101768.69;4920670;28;45359;-65
2021/06/25 05:46:48;;;;;;;;;33.75;26.25;;;;;18.12;100.00;101786.84;4918725;28;47467;-66
2021/06/25 05:49:15;;;;;;;;;29.75;27.50;;;;;18.15;100.00;101784.13;4920463;28;45308;-66
2021/06/25 05:51:40;;;;;;;;;30.75;26.00;;;;;18.13;100.00;101778.88;4920464;28;45516;-66
2021/06/25 05:54:06;;;;;;;;;29.50;25.75;;;;;18.23;100.00;101779.47;4920623;28;45416;-66
2021/06/25 05:56:31;;;;;;;;;29.50;27.75;;;;;18.28;100.00;101785.47;4919714;28;46123;-65
2021/06/25 05:58:57;;;;;;;;;27.75;25.50;;;;;18.29;100.00;101785.41;4919562;28;45482;-65
2021/06/25 06:01:22;;;;;;;;;29.50;26.00;;;;;18.36;100.00;101789.63;4919731;28;45506;-66
2021/06/25 06:03:47;;;;;;;;;30.25;28.50;;;;;18.38;100.00;101781.66;4920044;28;45496;-67
2021/06/25 06:06:13;;;;;;;;;31.50;27.75;;;;;18.37;100.00;101785.22;4919690;28;45621;-64
2021/06/25 06:12:00;;;;;;;;;31.25;29.50;;;;;18.47;100.00;101791.94;4919473;28;45437;-65
2021/06/25 06:14:25;;;;;;;;;29.75;28.00;;;;;18.44;100.00;101786.75;4920097;28;45419;-65
2021/06/25 06:16:54;;;;;;;;;25.00;22.25;;;;;18.51;100.00;101788.28;4919118;28;46268;-64
2021/06/25 06:19:19;;;;;;;;;30.50;29.00;;;;;18.56;100.00;101785.53;4918086;28;45444;-66
2021/06/25 06:31:36;;;;;;;;;25.75;23.25;;;;;18.81;100.00;101773.28;4919323;28;45641;-65
2021/06/25 06:33:34;;;;;;;;;27.25;24.50;;;;;18.85;100.00;101763.47;4910732;28;45289;-64
2021/06/25 06:36:01;;;;;;;;;24.00;21.00;;;;;18.96;100.00;101772.78;4919596;28;45369;-65
2021/06/25 06:38:28;;;;;;;;;22.50;21.75;;;;;18.98;100.00;101768.31;4919143;28;46138;-65
2021/06/25 06:40:54;;;;;;;;;24.50;21.50;;;;;19.08;100.00;101768.03;4919299;28;45659;-65
2021/06/25 06:43:20;;;;;;;;;23.75;22.50;;;;;19.08;100.00;101762.72;4919570;28;45270;-65
2021/06/25 06:45:45;;;;;;;;;19.50;19.00;;;;;19.19;100.00;101776.44;4919552;28;45455;-66
2021/06/25 06:48:10;;;;;;;;;24.75;23.75;;;;;19.17;100.00;101773.00;4919051;28;46580;-65
2021/06/25 06:50:36;;;;;;;;;24.00;21.00;;;;;19.18;100.00;101772.94;4919314;28;45434;-64
2021/06/25 06:53:02;;;;;;;;;28.00;21.25;;;;;19.21;100.00;101777.25;4919599;28;45356;-65
2021/06/25 06:55:27;;;;;;;;;24.25;20.25;;;;;19.22;100.00;101774.56;4919206;28;45350;-65
2021/06/25 06:57:53;;;;;;;;;25.50;21.75;;;;;19.22;100.00;101771.06;4918914;28;47333;-64
2021/06/25 07:00:19;;;;;;;;;22.75;21.00;;;;;19.24;100.00;101775.41;4919283;28;45435;-65
2021/06/25 07:02:45;;;;;;;;;23.50;21.50;;;;;19.25;100.00;101768.31;4918907;28;45369;-66
2021/06/25 07:05:12;;;;;;;;;22.00;18.75;;;;;19.30;100.00;101774.31;4919096;28;45459;-65
2021/06/25 07:07:38;;;;;;;;;21.75;20.00;;;;;19.33;100.00;101776.88;4919158;28;45473;-65
2021/06/25 07:10:06;;;;;;;;;30.25;22.75;;;;;19.36;100.00;101768.81;4918951;28;45429;-66
2021/06/25 07:12:32;;;;;;;;;24.25;21.00;;;;;19.37;100.00;101759.09;4919165;28;45861;-65
2021/06/25 07:14:58;;;;;;;;;21.50;20.25;;;;;19.43;100.00;101764.16;4919174;28;45397;-66
2021/06/25 07:17:23;;;;;;;;;22.25;20.25;;;;;19.49;100.00;101763.97;4918953;28;45312;-66
2021/06/25 07:19:50;;;;;;;;;22.50;21.00;;;;;19.50;100.00;101766.56;4918821;28;45377;-66
2021/06/25 07:22:15;;;;;;;;;20.00;19.25;;;;;19.52;100.00;101764.72;4918872;28;45365;-66
2021/06/25 07:24:41;;;;;;;;;24.75;21.00;;;;;19.61;100.00;101760.91;4919276;28;45322;-65
2021/06/25 07:27:07;;;;;;;;;20.00;19.00;;;;;19.62;100.00;101754.69;4918880;28;46296;-65
2021/06/25 07:29:32;;;;;;;;;21.00;18.75;;;;;19.69;100.00;101765.91;4919625;28;45555;-66
2021/06/25 07:31:58;;;;;;;;;27.25;23.75;;;;;19.74;100.00;101751.63;4922468;28;45301;-66
2021/06/25 07:34:23;;;;;;;;;27.50;23.75;;;;;19.91;100.00;101755.41;4922646;28;45518;-65
2021/06/25 07:36:49;;;;;;;;;23.25;23.25;;;;;20.07;100.00;101753.94;4922375;28;46414;-65
2021/06/25 07:42:37;;;;;;;;;22.75;20.50;;;;;20.14;100.00;101751.00;4922028;28;45281;-66
2021/06/25 07:45:07;;;;;;;;;24.25;21.75;;;;;20.15;100.00;101751.88;4922211;28;45380;-66
2021/06/25 07:47:37;;;;;;;;;21.50;20.75;;;;;20.15;100.00;101743.91;4922027;28;46588;-66
2021/06/25 07:50:08;;;;;;;;;26.00;21.75;;;;;20.20;100.00;101747.25;4921954;28;45361;-65
2021/06/25 07:52:34;;;;;;;;;22.75;20.50;;;;;20.22;100.00;101740.09;4921784;28;45347;-66
2021/06/25 07:54:59;;;;;;;;;26.50;21.50;;;;;20.35;100.00;101759.91;4922331;28;45524;-64
2021/06/25 07:57:25;;;;;;;;;26.00;23.25;;;;;20.45;100.00;101740.09;4921568;28;46316;-65
2021/06/25 07:59:50;;;;;;;;;26.50;24.00;;;;;20.54;100.00;101740.66;4921911;28;45318;-65
2021/06/25 08:02:16;;;;;;;;;23.75;22.25;;;;;20.66;100.00;101725.13;4921807;28;45286;-66
2021/06/25 08:04:46;;;;;;;;;26.50;22.00;;;;;20.78;100.00;101724.59;4922197;28;45454;-66
2021/06/25 08:07:13;;;;;;;;;22.75;20.00;;;;;20.85;100.00;101719.06;4921461;28;47173;-64
2021/06/25 08:09:39;;;;;;;;;24.25;21.50;;;;;21.03;100.00;101726.22;4921993;28;45404;-65
2021/06/25 08:12:06;;;;;;;;;20.00;19.25;;;;;21.12;100.00;101723.22;4921787;28;45522;-65
2021/06/25 08:14:31;;;;;;;;;23.00;21.25;;;;;21.23;100.00;101714.75;4920689;28;45512;-65
2021/06/25 08:16:57;;;;;;;;;26.00;23.50;;;;;21.40;100.00;101713.16;4921573;28;45422;-65
2021/06/25 08:19:22;;;;;;;;;23.00;22.00;;;;;21.54;100.00;101712.53;4921535;28;45295;-65
2021/06/25 08:21:47;;;;;;;;;21.25;19.25;;;;;21.69;100.00;101721.59;4921749;28;45320;-66
2021/06/25 08:27:34;;;;;;;;;22.25;19.75;;;;;21.91;100.00;101729.47;4921179;28;45795;-64
2021/06/25 08:30:00;;;;;;;;;16.50;16.00;;;;;21.86;100.00;101715.53;4921742;28;45445;-65
2021/06/25 08:32:25;;;;;;;;;23.00;19.75;;;;;21.84;100.00;101707.63;4921369;28;45312;-65
2021/06/25 08:34:53;;;;;;;;;22.50;21.00;;;;;21.89;100.00;101710.06;4921661;28;45244;-65
2021/06/25 08:37:19;;;;;;;;;21.50;20.75;;;;;21.95;100.00;101694.72;4921195;28;45500;-65
2021/06/25 08:39:44;;;;;;;;;21.00;18.25;;;;;22.16;100.00;101695.53;4921421;28;45256;-65
2021/06/25 08:42:10;;;;;;;;;18.75;17.75;;;;;22.34;100.00;101692.94;4920120;28;45473;-65
2021/06/25 08:44:37;;;;;;;;;16.75;16.00;;;;;22.48;100.00;101693.13;4921648;28;45404;-65
2021/06/25 08:47:07;;;;;;;;;19.00;16.00;;;;;22.51;100.00;101693.84;4921128;28;46560;-64
2021/06/25 08:49:35;;;;;;;;;17.25;15.75;;;;;22.54;100.00;101687.50;4920898;28;45378;-64
2021/06/25 08:52:01;;;;;;;;;21.00;18.00;;;;;22.56;100.00;101693.59;4920076;28;45375;-64
2021/06/25 08:57:48;;;;;;;;;23.75;16.75;;;;;22.50;100.00;101691.25;4920813;28;45935;-65
2021/06/25 09:00:16;;;;;;;;;20.50;18.50;;;;;22.54;100.00;101692.81;4921185;28;45346;-65
2021/06/25 09:02:41;;;;;;;;;19.50;16.00;;;;;22.64;100.00;101688.78;4921296;28;45364;-65
2021/06/25 09:05:22;;;;;;;;;18.00;16.75;;;;;22.69;100.00;101685.88;4920963;28;45451;-65
2021/06/25 09:07:49;;;;;;;;;22.50;19.50;;;;;22.72;100.00;101673.28;4920774;28;47406;-66
2021/06/25 09:10:28;;;;;;;;;16.75;14.50;;;;;22.84;100.00;101669.16;4920696;28;45698;-65
2021/06/25 09:13:09;;;;;;;;;14.00;13.25;;;;;22.96;100.00;101673.88;4921116;28;45419;-65
2021/06/25 09:15:36;;;;;;;;;14.50;12.75;;;;;23.15;100.00;101681.78;4919817;28;45428;-66
2021/06/25 09:18:05;;;;;;;;;13.00;11.75;;;;;23.33;100.00;101675.50;4920794;28;45558;-65
2021/06/25 09:20:42;;;;;;;;;16.25;13.75;;;;;23.46;100.00;101671.22;4920512;28;45345;-66
2021/06/25 09:23:30;;;;;;;;;12.75;12.00;;;;;23.68;100.00;101672.78;4920739;28;45352;-65
2021/06/25 09:25:59;;;;;;;;;15.75;13.00;;;;;23.90;100.00;101662.66;4911863;28;45396;-65
2021/06/25 09:28:28;;;;;;;;;17.75;13.50;;;;;24.12;100.00;101657.00;4920668;28;45552;-65
2021/06/25 09:30:54;;;;;;;;;13.50;11.25;;;;;24.32;100.00;101654.09;4920433;28;45659;-67
2021/06/25 09:33:20;;;;;;;;;13.00;10.50;;;;;24.55;100.00;101659.91;4920688;28;45460;-66
2021/06/25 09:36:21;;;;;;;;;13.50;12.50;;;;;24.90;100.00;101663.19;4920851;28;45479;-66
2021/06/25 09:38:54;;;;;;;;;12.50;12.00;;;;;25.09;100.00;101661.16;4919224;28;47245;-64
2021/06/25 09:41:21;;;;;;;;;9.75;9.75;;;;;25.22;100.00;101659.47;4920438;28;45564;-65
2021/06/25 09:43:58;;;;;;;;;11.75;10.75;;;;;25.31;100.00;101650.00;4920382;28;45325;-66
2021/06/25 09:46:29;;;;;;;;;8.00;8.00;;;;;25.31;100.00;101648.19;4920694;28;45436;-64
2021/06/25 09:49:01;;;;;;;;;9.75;8.25;;;;;25.30;100.00;101654.50;4920084;28;46578;-64
2021/06/25 09:51:27;;;;;;;;;8.00;8.00;;;;;25.25;100.00;101643.22;4920527;28;45428;-64
2021/06/25 09:54:05;;;;;;;;;8.00;7.50;;;;;25.38;100.00;101645.16;4920215;28;45387;-64
2021/06/25 09:56:34;;;;;;;;;6.25;6.00;;;;;25.53;100.00;101644.19;4920767;28;45288;-65
2021/06/25 10:02:17;;;;;;;;;5.25;5.00;;;;;25.62;100.00;101657.00;4860989;29;45451;-65
2021/06/25 10:04:47;;;;;;;;;4.50;4.50;;;;;25.59;100.00;101655.38;4845697;29;45516;-66
2021/06/25 10:07:17;;;;;;;;;6.50;6.50;;;;;25.41;100.00;101653.84;4861412;29;45717;-65
2021/06/25 10:09:45;;;;;;;;;5.00;4.50;;;;;25.32;100.00;101654.41;4860511;29;47646;-65
2021/06/25 10:12:12;;;;;;;;;6.00;5.25;;;;;25.26;100.00;101666.34;4860784;29;45399;-65
2021/06/25 10:14:39;;;;;;;;;5.50;5.50;;;;;25.23;100.00;101658.50;4860856;29;45415;-65
2021/06/25 10:17:08;;;;;;;;;6.75;5.25;;;;;25.17;100.00;101658.03;4861218;29;45542;-66
2021/06/25 10:19:36;;;;;;;;;5.00;4.25;;;;;25.11;100.00;101661.06;4860532;29;46453;-65
2021/06/25 10:22:03;;;;;;;;;6.75;6.50;;;;;24.93;100.00;101649.66;4860993;29;45484;-65
2021/06/25 10:24:32;;;;;;;;;5.50;5.00;;;;;24.69;100.00;101647.50;4860712;29;45422;-65
2021/06/25 10:26:58;;;;;;;;;5.00;5.00;;;;;24.67;100.00;101653.88;4861215;29;45573;-65
2021/06/25 10:29:25;;;;;;;;;6.00;4.25;;;;;24.65;100.00;101655.75;4860765;29;45485;-64
2021/06/25 10:31:51;;;;;;;;;4.25;4.25;;;;;24.73;100.00;101653.50;4860455;29;45478;-65
2021/06/25 10:34:17;;;;;;;;;6.00;5.00;;;;;24.81;100.00;101651.22;4861016;29;45575;-66
2021/06/25 10:36:43;;;;;;;;;6.00;5.00;;;;;24.80;100.00;101643.31;4860973;29;45514;-67
2021/06/25 10:39:16;;;;;;;;;5.25;4.50;;;;;24.80;100.00;101635.28;4890600;28;47538;-65
2021/06/25 10:41:48;;;;;;;;;5.25;5.00;;;;;24.99;100.00;101649.31;4919497;28;45289;-66
2021/06/25 10:44:33;;;;;;;;;6.00;5.50;;;;;25.05;100.00;101643.59;4919829;28;45408;-65
2021/06/25 10:47:16;;;;;;;;;5.00;5.00;;;;;25.06;100.00;101645.31;4919843;28;45484;-65
2021/06/25 10:50:08;;;;;;;;;5.50;4.25;;;;;25.05;100.00;101643.59;4919300;28;46391;-65
2021/06/25 10:52:41;;;;;;;;;6.00;5.25;;;;;25.00;100.00;101643.00;4919472;28;45667;-65
2021/06/25 10:55:07;;;;;;;;;6.25;6.00;;;;;24.89;100.00;101646.28;4919152;28;45377;-65
2021/06/25 10:57:57;;;;;;;;;6.00;5.50;;;;;24.82;100.00;101644.06;4919846;28;45495;-66
2021/06/25 11:00:45;;;;;;;;;5.00;5.00;;;;;24.68;100.00;101632.41;4919377;28;46357;-66
2021/06/25 11:03:31;;;;;;;;;7.00;6.00;;;;;24.72;100.00;101646.44;4912680;28;45325;-66
2021/06/25 11:05:56;;;;;;;;;6.00;5.50;;;;;24.70;100.00;101638.53;4918802;28;45342;-65
2021/06/25 11:11:43;;;;;;;;;7.00;6.50;;;;;24.49;100.00;101642.44;4918953;28;45423;-66
2021/06/25 11:14:27;;;;;;;;;6.50;6.50;;;;;24.36;100.00;101644.94;4918916;28;45411;-66
2021/06/25 11:16:52;;;;;;;;;6.50;5.75;;;;;24.37;100.00;101649.34;4919157;28;45491;-65
2021/06/25 11:19:41;;;;;;;;;7.25;7.00;;;;;24.34;100.00;101646.84;4919501;28;45363;-66
2021/06/25 11:22:43;;;;;;;;;6.75;6.75;;;;;24.23;100.00;101649.25;4918727;28;45652;-66
2021/06/25 11:28:30;;;;;;;;;5.25;5.25;;;;;23.85;100.00;101651.41;4919114;28;45555;-65
2021/06/25 11:31:17;;;;;;;;;7.75;7.75;;;;;23.69;100.00;101656.69;4918983;28;45631;-66
2021/06/25 11:33:52;;;;;;;;;7.00;6.00;;;;;23.51;100.00;101647.84;4919135;28;46195;-66
2021/06/25 11:36:20;;;;;;;;;5.50;5.50;;;;;23.41;100.00;101648.44;4918978;28;45791;-64
2021/06/25 11:39:07;;;;;;;;;6.25;5.00;;;;;23.26;100.00;101646.56;4919119;28;45315;-64
2021/06/25 11:41:36;;;;;;;;;6.00;5.50;;;;;23.11;100.00;101646.47;4919095;28;45341;-65
2021/06/25 11:44:05;;;;;;;;;7.00;6.00;;;;;22.99;100.00;101652.41;4918713;28;47475;-66
2021/06/25 11:46:31;;;;;;;;;5.00;5.00;;;;;22.93;100.00;101650.06;4918848;28;45285;-65
2021/06/25 11:49:06;;;;;;;;;7.00;6.75;;;;;22.79;100.00;101636.56;4919045;28;45427;-66
2021/06/25 11:51:40;;;;;;;;;5.50;5.50;;;;;22.81;100.00;101643.53;4919173;28;45346;-66
2021/06/25 11:54:07;;;;;;;;;4.00;3.75;;;;;22.81;100.00;101632.91;4918619;28;45394;-66
2021/06/25 11:56:34;;;;;;;;;5.00;5.00;;;;;22.75;100.00;101633.19;4918821;28;45358;-66
2021/06/25 11:59:03;;;;;;;;;5.75;5.50;;;;;22.73;100.00;101637.72;4918564;28;45303;-65
2021/06/25 12:01:29;;;;;;;;;7.75;7.50;;;;;22.68;100.00;101637.09;4918599;28;45769;-66
2021/06/25 12:03:56;;;;;;;;;6.00;4.75;;;;;22.64;100.00;101646.19;4918531;28;47373;-65
2021/06/25 12:06:23;;;;;;;;;6.75;5.50;;;;;22.56;100.00;101637.72;4918392;28;45252;-65
2021/06/25 12:08:54;;;;;;;;;4.25;4.25;;;;;22.52;100.00;101638.81;4918501;28;45321;-66
2021/06/25 12:11:21;;;;;;;;;7.75;6.25;;;;;22.52;100.00;101641.47;4918512;28;45372;-67
2021/06/25 12:13:55;;;;;;;;;7.50;7.25;;;;;22.55;100.00;101652.81;4918490;28;46716;-66
2021/06/25 12:16:20;;;;;;;;;7.75;6.50;;;;;22.51;100.00;101653.06;4919079;28;45546;-66
2021/06/25 12:18:46;;;;;;;;;6.00;5.00;;;;;22.41;100.00;101646.47;4921917;28;45312;-66
2021/06/25 12:21:14;;;;;;;;;5.00;5.00;;;;;22.28;100.00;101633.75;4921680;28;45393;-66